sensor_id;sensor_type;location;lat;lon;timestamp;pressure;altitude;pressure_sealevel;temperature;humidity
11099;BME280;12223;42.650;23.364;2023-02-18T00:01:58;95497.16;;;2.97;89.92
11099;BME280;12223;42.650;23.364;2023-02-18T00:04:24;95495.19;;;2.91;89.04
11099;BME280;12223;42.650;23.364;2023-02-18T00:06:51;95488.44;;;2.55;91.43
11099;BME280;12223;42.650;23.364;2023-02-18T00:09:18;95487.41;;;2.73;92.63
11099;BME280;12223;42.650;23.364;2023-02-18T00:11:45;95479.38;;;2.67;93.24
11099;BME280;12223;42.650;23.364;2023-02-18T00:14:14;95479.19;;;2.60;95.10
11099;BME280;12223;42.650;23.364;2023-02-18T00:16:42;95465.34;;;2.34;95.81
11099;BME280;12223;42.650;23.364;2023-02-18T00:19:11;95467.88;;;2.26;99.53
11099;BME280;12223;42.650;23.364;2023-02-18T00:21:39;95463.53;;;2.34;98.65
11099;BME280;12223;42.650;23.364;2023-02-18T00:24:07;95467.00;;;1.99;100.00
11099;BME280;12223;42.650;23.364;2023-02-18T00:26:34;95472.97;;;2.35;100.00
11099;BME280;12223;42.650;23.364;2023-02-18T00:29:02;95459.59;;;2.30;100.00
11099;BME280;12223;42.650;23.364;2023-02-18T00:31:32;95442.09;;;2.23;100.00
11099;BME280;12223;42.650;23.364;2023-02-18T00:33:59;95436.28;;;2.29;100.00
11099;BME280;12223;42.650;23.364;2023-02-18T00:36:27;95443.97;;;2.30;100.00
11099;BME280;12223;42.650;23.364;2023-02-18T00:38:55;95417.25;;;2.11;100.00
11099;BME280;12223;42.650;23.364;2023-02-18T00:41:23;95431.97;;;2.37;100.00
11099;BME280;12223;42.650;23.364;2023-02-18T00:43:50;95418.28;;;2.18;100.00
11099;BME280;12223;42.650;23.364;2023-02-18T00:46:18;95429.75;;;2.25;100.00
11099;BME280;12223;42.650;23.364;2023-02-18T00:48:46;95438.75;;;2.30;100.00
11099;BME280;12223;42.650;23.364;2023-02-18T00:51:13;95440.59;;;2.38;100.00
11099;BME280;12223;42.650;23.364;2023-02-18T00:53:40;95425.63;;;2.14;100.00
11099;BME280;12223;42.650;23.364;2023-02-18T00:56:07;95437.84;;;2.22;100.00
11099;BME280;12223;42.650;23.364;2023-02-18T00:58:34;95436.75;;;2.24;98.86
11099;BME280;12223;42.650;23.364;2023-02-18T01:01:01;95422.47;;;2.11;98.72
11099;BME280;12223;42.650;23.364;2023-02-18T01:03:28;95442.53;;;1.92;100.00
11099;BME280;12223;42.650;23.364;2023-02-18T01:05:56;95437.63;;;1.89;100.00
11099;BME280;12223;42.650;23.364;2023-02-18T01:08:23;95443.25;;;1.85;100.00
11099;BME280;12223;42.650;23.364;2023-02-18T01:10:53;95448.78;;;1.82;100.00
11099;BME280;12223;42.650;23.364;2023-02-18T01:13:20;95435.91;;;1.45;100.00
11099;BME280;12223;42.650;23.364;2023-02-18T01:15:47;95443.13;;;1.51;100.00
11099;BME280;12223;42.650;23.364;2023-02-18T01:18:15;95433.81;;;1.48;100.00
11099;BME280;12223;42.650;23.364;2023-02-18T01:20:42;95443.13;;;1.51;100.00
11099;BME280;12223;42.650;23.364;2023-02-18T01:23:11;95437.47;;;1.55;100.00
11099;BME280;12223;42.650;23.364;2023-02-18T01:25:39;95440.91;;;1.74;100.00
11099;BME280;12223;42.650;23.364;2023-02-18T01:28:07;95433.16;;;1.82;100.00
11099;BME280;12223;42.650;23.364;2023-02-18T01:30:34;95431.16;;;1.76;100.00
11099;BME280;12223;42.650;23.364;2023-02-18T01:33:00;95429.22;;;1.95;100.00
11099;BME280;12223;42.650;23.364;2023-02-18T01:35:28;95428.06;;;1.98;100.00
11099;BME280;12223;42.650;23.364;2023-02-18T01:37:54;95431.81;;;1.95;100.00
11099;BME280;12223;42.650;23.364;2023-02-18T01:40:25;95425.53;;;2.06;100.00
11099;BME280;12223;42.650;23.364;2023-02-18T01:42:52;95427.19;;;2.07;100.00
11099;BME280;12223;42.650;23.364;2023-02-18T01:45:50;95424.66;;;1.97;100.00
11099;BME280;12223;42.650;23.364;2023-02-18T01:48:22;95433.41;;;1.71;100.00
11099;BME280;12223;42.650;23.364;2023-02-18T01:50:53;95440.34;;;2.06;100.00
11099;BME280;12223;42.650;23.364;2023-02-18T01:53:30;95443.19;;;1.94;100.00
11099;BME280;12223;42.650;23.364;2023-02-18T01:55:59;95444.84;;;1.95;100.00
11099;BME280;12223;42.650;23.364;2023-02-18T01:58:28;95447.56;;;2.12;100.00
11099;BME280;12223;42.650;23.364;2023-02-18T02:00:54;95445.31;;;2.17;100.00
11099;BME280;12223;42.650;23.364;2023-02-18T02:03:21;95444.69;;;2.15;100.00
11099;BME280;12223;42.650;23.364;2023-02-18T02:05:48;95451.28;;;2.27;100.00
11099;BME280;12223;42.650;23.364;2023-02-18T02:08:15;95440.78;;;2.19;100.00
11099;BME280;12223;42.650;23.364;2023-02-18T02:11:03;95429.22;;;1.95;100.00
11099;BME280;12223;42.650;23.364;2023-02-18T02:13:55;95435.31;;;1.86;100.00
11099;BME280;12223;42.650;23.364;2023-02-18T02:16:28;95432.78;;;1.77;100.00
11099;BME280;12223;42.650;23.364;2023-02-18T02:19:05;95429.13;;;1.52;100.00
11099;BME280;12223;42.650;23.364;2023-02-18T02:25:06;95433.59;;;1.77;100.00
11099;BME280;12223;42.650;23.364;2023-02-18T02:34:20;95429.28;;;1.86;100.00
11099;BME280;12223;42.650;23.364;2023-02-18T02:36:53;95420.56;;;1.77;100.00
11099;BME280;12223;42.650;23.364;2023-02-18T02:39:29;95415.53;;;2.19;100.00
11099;BME280;12223;42.650;23.364;2023-02-18T02:42:03;95405.59;;;2.15;100.00
11099;BME280;12223;42.650;23.364;2023-02-18T02:44:38;95408.66;;;2.36;100.00
11099;BME280;12223;42.650;23.364;2023-02-18T02:47:12;95409.88;;;2.24;100.00
11099;BME280;12223;42.650;23.364;2023-02-18T02:49:48;95398.47;;;2.25;100.00
11099;BME280;12223;42.650;23.364;2023-02-18T02:52:21;95394.13;;;2.08;100.00
11099;BME280;12223;42.650;23.364;2023-02-18T02:54:50;95401.09;;;2.25;99.88
11099;BME280;12223;42.650;23.364;2023-02-18T02:57:46;95406.16;;;2.60;98.56
11099;BME280;12223;42.650;23.364;2023-02-18T03:00:15;95397.59;;;2.68;96.25
11099;BME280;12223;42.650;23.364;2023-02-18T03:02:56;95417.91;;;2.30;95.92
11099;BME280;12223;42.650;23.364;2023-02-18T03:05:35;95420.53;;;2.13;97.58
11099;BME280;12223;42.650;23.364;2023-02-18T03:08:17;95419.81;;;2.46;94.52
11099;BME280;12223;42.650;23.364;2023-02-18T03:10:51;95414.50;;;2.12;97.05
11099;BME280;12223;42.650;23.364;2023-02-18T03:13:28;95419.25;;;2.17;99.53
11099;BME280;12223;42.650;23.364;2023-02-18T03:16:09;95416.72;;;2.25;99.19
11099;BME280;12223;42.650;23.364;2023-02-18T03:18:39;95416.47;;;2.36;99.13
11099;BME280;12223;42.650;23.364;2023-02-18T03:21:12;95410.22;;;2.55;97.00
11099;BME280;12223;42.650;23.364;2023-02-18T03:23:48;95419.88;;;2.62;95.54
11099;BME280;12223;42.650;23.364;2023-02-18T03:26:18;95432.31;;;2.68;91.57
11099;BME280;12223;42.650;23.364;2023-02-18T03:28:48;95445.19;;;2.44;90.60
11099;BME280;12223;42.650;23.364;2023-02-18T03:31:19;95454.13;;;1.98;93.53
11099;BME280;12223;42.650;23.364;2023-02-18T03:33:51;95426.16;;;1.82;96.30
11099;BME280;12223;42.650;23.364;2023-02-18T03:36:22;95464.91;;;2.03;97.53
11099;BME280;12223;42.650;23.364;2023-02-18T03:38:53;95469.47;;;1.83;99.01
11099;BME280;12223;42.650;23.364;2023-02-18T03:41:21;95467.16;;;1.80;100.00
11099;BME280;12223;42.650;23.364;2023-02-18T03:43:49;95468.56;;;1.75;100.00
11099;BME280;12223;42.650;23.364;2023-02-18T03:46:16;95469.50;;;2.09;100.00
11099;BME280;12223;42.650;23.364;2023-02-18T03:48:43;95473.88;;;1.83;100.00
11099;BME280;12223;42.650;23.364;2023-02-18T03:51:10;95479.00;;;1.92;100.00
11099;BME280;12223;42.650;23.364;2023-02-18T03:53:38;95490.97;;;1.85;100.00
11099;BME280;12223;42.650;23.364;2023-02-18T03:56:05;95487.72;;;1.83;100.00
11099;BME280;12223;42.650;23.364;2023-02-18T03:58:32;95477.44;;;1.82;100.00
11099;BME280;12223;42.650;23.364;2023-02-18T04:00:59;95492.38;;;1.80;100.00
11099;BME280;12223;42.650;23.364;2023-02-18T04:03:25;95475.84;;;1.53;100.00
11099;BME280;12223;42.650;23.364;2023-02-18T04:05:52;95465.94;;;1.12;100.00
11099;BME280;12223;42.650;23.364;2023-02-18T04:08:19;95467.63;;;1.31;100.00
11099;BME280;12223;42.650;23.364;2023-02-18T04:10:47;95452.00;;;1.31;100.00
11099;BME280;12223;42.650;23.364;2023-02-18T04:13:14;95457.38;;;1.47;100.00
11099;BME280;12223;42.650;23.364;2023-02-18T04:15:42;95454.31;;;1.34;100.00
11099;BME280;12223;42.650;23.364;2023-02-18T04:18:09;95451.91;;;1.68;100.00
11099;BME280;12223;42.650;23.364;2023-02-18T04:20:35;95449.22;;;1.77;100.00
11099;BME280;12223;42.650;23.364;2023-02-18T04:23:03;95456.06;;;1.60;100.00
11099;BME280;12223;42.650;23.364;2023-02-18T04:25:29;95438.78;;;1.24;100.00
11099;BME280;12223;42.650;23.364;2023-02-18T04:27:58;95438.44;;;1.72;100.00
11099;BME280;12223;42.650;23.364;2023-02-18T04:30:24;95428.38;;;1.95;100.00
11099;BME280;12223;42.650;23.364;2023-02-18T04:32:51;95434.56;;;1.58;100.00
11099;BME280;12223;42.650;23.364;2023-02-18T04:35:18;95438.66;;;1.61;100.00
11099;BME280;12223;42.650;23.364;2023-02-18T04:37:45;95436.72;;;1.81;100.00
11099;BME280;12223;42.650;23.364;2023-02-18T04:40:12;95415.19;;;1.96;100.00
11099;BME280;12223;42.650;23.364;2023-02-18T04:42:39;95422.91;;;2.24;100.00
11099;BME280;12223;42.650;23.364;2023-02-18T04:45:08;95428.13;;;2.24;100.00
11099;BME280;12223;42.650;23.364;2023-02-18T04:47:34;95429.41;;;2.20;100.00
11099;BME280;12223;42.650;23.364;2023-02-18T04:50:02;95439.56;;;2.31;100.00
11099;BME280;12223;42.650;23.364;2023-02-18T04:52:29;95434.06;;;2.34;100.00
11099;BME280;12223;42.650;23.364;2023-02-18T04:54:55;95442.31;;;2.29;97.51
11099;BME280;12223;42.650;23.364;2023-02-18T04:57:22;95438.56;;;2.50;96.48
11099;BME280;12223;42.650;23.364;2023-02-18T04:59:49;95445.19;;;2.44;95.54
11099;BME280;12223;42.650;23.364;2023-02-18T05:02:17;95457.88;;;2.39;97.29
11099;BME280;12223;42.650;23.364;2023-02-18T05:04:43;95450.06;;;2.39;97.39
11099;BME280;12223;42.650;23.364;2023-02-18T05:07:10;95463.16;;;2.29;97.00
11099;BME280;12223;42.650;23.364;2023-02-18T05:09:37;95478.00;;;2.11;100.00
11099;BME280;12223;42.650;23.364;2023-02-18T05:12:05;95462.47;;;2.45;98.83
11099;BME280;12223;42.650;23.364;2023-02-18T05:14:32;95468.47;;;2.20;99.41
11099;BME280;12223;42.650;23.364;2023-02-18T05:16:59;95462.16;;;2.48;99.49
11099;BME280;12223;42.650;23.364;2023-02-18T05:19:27;95444.66;;;2.66;97.79
11099;BME280;12223;42.650;23.364;2023-02-18T05:21:54;95444.38;;;2.43;97.27
11099;BME280;12223;42.650;23.364;2023-02-18T05:24:21;95459.16;;;2.17;97.04
11099;BME280;12223;42.650;23.364;2023-02-18T05:26:47;95459.72;;;1.85;99.18
11099;BME280;12223;42.650;23.364;2023-02-18T05:29:14;95460.22;;;1.53;100.00
11099;BME280;12223;42.650;23.364;2023-02-18T05:31:41;95440.31;;;1.62;100.00
11099;BME280;12223;42.650;23.364;2023-02-18T05:34:08;95446.09;;;1.56;100.00
11099;BME280;12223;42.650;23.364;2023-02-18T05:36:36;95443.22;;;1.77;100.00
11099;BME280;12223;42.650;23.364;2023-02-18T05:39:03;95440.28;;;1.80;100.00
11099;BME280;12223;42.650;23.364;2023-02-18T05:41:29;95441.56;;;1.76;100.00
11099;BME280;12223;42.650;23.364;2023-02-18T05:43:56;95454.50;;;2.03;100.00
11099;BME280;12223;42.650;23.364;2023-02-18T05:46:40;95449.28;;;2.21;100.00
11099;BME280;12223;42.650;23.364;2023-02-18T05:49:07;95433.44;;;2.14;100.00
11099;BME280;12223;42.650;23.364;2023-02-18T05:51:33;95432.44;;;2.15;100.00
11099;BME280;12223;42.650;23.364;2023-02-18T05:54:01;95453.50;;;2.22;100.00
11099;BME280;12223;42.650;23.364;2023-02-18T05:56:28;95456.59;;;2.43;100.00
11099;BME280;12223;42.650;23.364;2023-02-18T05:58:55;95470.34;;;2.53;100.00
11099;BME280;12223;42.650;23.364;2023-02-18T06:01:22;95468.25;;;2.82;98.50
11099;BME280;12223;42.650;23.364;2023-02-18T06:03:49;95460.53;;;3.07;94.04
11099;BME280;12223;42.650;23.364;2023-02-18T06:06:16;95473.69;;;3.31;90.58
11099;BME280;12223;42.650;23.364;2023-02-18T06:08:42;95475.41;;;3.56;87.69
11099;BME280;12223;42.650;23.364;2023-02-18T06:11:10;95467.44;;;3.74;84.82
11099;BME280;12223;42.650;23.364;2023-02-18T06:13:37;95467.94;;;3.86;83.62
11099;BME280;12223;42.650;23.364;2023-02-18T06:16:06;95458.84;;;4.14;82.61
11099;BME280;12223;42.650;23.364;2023-02-18T06:18:33;95455.59;;;4.28;80.20
11099;BME280;12223;42.650;23.364;2023-02-18T06:21:00;95466.38;;;4.41;79.68
11099;BME280;12223;42.650;23.364;2023-02-18T06:23:26;95467.47;;;4.63;78.60
11099;BME280;12223;42.650;23.364;2023-02-18T06:25:53;95451.94;;;4.62;79.03
11099;BME280;12223;42.650;23.364;2023-02-18T06:28:21;95462.44;;;4.54;79.43
11099;BME280;12223;42.650;23.364;2023-02-18T06:30:48;95456.84;;;4.65;81.66
11099;BME280;12223;42.650;23.364;2023-02-18T06:33:15;95457.97;;;4.87;80.66
11099;BME280;12223;42.650;23.364;2023-02-18T06:35:51;95445.97;;;5.00;79.68
11099;BME280;12223;42.650;23.364;2023-02-18T06:38:18;95440.19;;;5.13;78.72
11099;BME280;12223;42.650;23.364;2023-02-18T06:40:46;95443.47;;;5.07;78.13
11099;BME280;12223;42.650;23.364;2023-02-18T06:43:12;95436.22;;;5.25;75.04
11099;BME280;12223;42.650;23.364;2023-02-18T06:45:40;95453.44;;;5.50;73.03
11099;BME280;12223;42.650;23.364;2023-02-18T06:48:07;95446.91;;;5.77;70.70
11099;BME280;12223;42.650;23.364;2023-02-18T06:50:34;95449.72;;;6.07;67.51
11099;BME280;12223;42.650;23.364;2023-02-18T06:53:01;95445.09;;;6.31;65.24
11099;BME280;12223;42.650;23.364;2023-02-18T06:55:28;95443.16;;;6.48;62.28
11099;BME280;12223;42.650;23.364;2023-02-18T06:57:54;95441.66;;;6.31;64.21
11099;BME280;12223;42.650;23.364;2023-02-18T07:00:21;95439.81;;;6.54;61.99
11099;BME280;12223;42.650;23.364;2023-02-18T07:02:49;95451.22;;;6.61;61.33
11099;BME280;12223;42.650;23.364;2023-02-18T07:05:16;95433.47;;;6.49;60.34
11099;BME280;12223;42.650;23.364;2023-02-18T07:07:43;95440.97;;;6.37;61.41
11099;BME280;12223;42.650;23.364;2023-02-18T07:10:10;95443.16;;;6.48;61.48
11099;BME280;12223;42.650;23.364;2023-02-18T07:12:37;95431.00;;;7.14;59.50
11099;BME280;12223;42.650;23.364;2023-02-18T07:15:04;95427.31;;;7.59;57.54
11099;BME280;12223;42.650;23.364;2023-02-18T07:17:31;95430.66;;;7.67;56.94
11099;BME280;12223;42.650;23.364;2023-02-18T07:20:01;95434.31;;;7.88;55.20
11099;BME280;12223;42.650;23.364;2023-02-18T07:22:28;95430.38;;;7.77;55.18
11099;BME280;12223;42.650;23.364;2023-02-18T07:24:55;95415.59;;;7.76;54.63
11099;BME280;12223;42.650;23.364;2023-02-18T07:27:22;95431.69;;;7.88;54.34
11099;BME280;12223;42.650;23.364;2023-02-18T07:29:49;95421.91;;;7.82;52.54
11099;BME280;12223;42.650;23.364;2023-02-18T07:32:17;95421.88;;;7.60;53.73
11099;BME280;12223;42.650;23.364;2023-02-18T07:34:44;95428.84;;;7.53;53.10
11099;BME280;12223;42.650;23.364;2023-02-18T07:37:12;95442.38;;;7.21;54.05
11099;BME280;12223;42.650;23.364;2023-02-18T07:39:40;95443.59;;;7.18;55.30
11099;BME280;12223;42.650;23.364;2023-02-18T07:42:07;95440.41;;;7.08;54.42
11099;BME280;12223;42.650;23.364;2023-02-18T07:44:35;95454.91;;;7.04;54.87
11099;BME280;12223;42.650;23.364;2023-02-18T07:47:02;95451.63;;;7.17;55.10
11099;BME280;12223;42.650;23.364;2023-02-18T07:49:29;95456.63;;;7.26;54.90
11099;BME280;12223;42.650;23.364;2023-02-18T07:51:57;95464.50;;;7.41;54.76
11099;BME280;12223;42.650;23.364;2023-02-18T07:54:26;95456.41;;;7.57;54.29
11099;BME280;12223;42.650;23.364;2023-02-18T07:56:52;95462.03;;;7.90;53.78
11099;BME280;12223;42.650;23.364;2023-02-18T07:59:20;95466.97;;;8.36;52.30
11099;BME280;12223;42.650;23.364;2023-02-18T08:01:47;95460.59;;;8.45;51.94
11099;BME280;12223;42.650;23.364;2023-02-18T08:04:14;95455.06;;;8.61;51.09
11099;BME280;12223;42.650;23.364;2023-02-18T08:06:42;95450.41;;;8.84;50.02
11099;BME280;12223;42.650;23.364;2023-02-18T08:09:11;95439.31;;;8.96;49.76
11099;BME280;12223;42.650;23.364;2023-02-18T08:11:40;95444.25;;;9.40;48.93
11099;BME280;12223;42.650;23.364;2023-02-18T08:14:07;95455.31;;;10.17;47.52
11099;BME280;12223;42.650;23.364;2023-02-18T08:16:34;95450.06;;;10.83;46.32
11099;BME280;12223;42.650;23.364;2023-02-18T08:19:01;95442.47;;;11.33;45.12
11099;BME280;12223;42.650;23.364;2023-02-18T08:21:29;95424.16;;;11.44;43.57
11099;BME280;12223;42.650;23.364;2023-02-18T08:23:57;95424.59;;;11.21;43.22
11099;BME280;12223;42.650;23.364;2023-02-18T08:26:24;95432.88;;;11.45;42.89
11099;BME280;12223;42.650;23.364;2023-02-18T08:28:52;95434.66;;;11.57;43.30
11099;BME280;12223;42.650;23.364;2023-02-18T08:31:20;95434.81;;;11.82;42.46
11099;BME280;12223;42.650;23.364;2023-02-18T08:33:48;95418.59;;;11.59;41.68
11099;BME280;12223;42.650;23.364;2023-02-18T08:36:15;95426.81;;;11.89;41.70
11099;BME280;12223;42.650;23.364;2023-02-18T08:38:42;95426.38;;;11.98;41.39
11099;BME280;12223;42.650;23.364;2023-02-18T08:41:09;95412.59;;;11.83;40.30
11099;BME280;12223;42.650;23.364;2023-02-18T08:43:36;95418.34;;;11.67;40.78
11099;BME280;12223;42.650;23.364;2023-02-18T08:46:04;95412.38;;;11.27;41.21
11099;BME280;12223;42.650;23.364;2023-02-18T08:48:31;95411.41;;;11.15;41.50
11099;BME280;12223;42.650;23.364;2023-02-18T08:50:58;95414.91;;;10.89;41.63
11099;BME280;12223;42.650;23.364;2023-02-18T08:53:26;95427.09;;;10.83;41.65
11099;BME280;12223;42.650;23.364;2023-02-18T08:55:52;95429.94;;;10.69;42.11
11099;BME280;12223;42.650;23.364;2023-02-18T08:58:19;95433.19;;;10.44;42.34
11099;BME280;12223;42.650;23.364;2023-02-18T09:00:46;95427.50;;;10.34;42.53
11099;BME280;12223;42.650;23.364;2023-02-18T09:03:14;95438.00;;;10.08;42.98
11099;BME280;12223;42.650;23.364;2023-02-18T09:05:41;95421.81;;;10.37;43.14
11099;BME280;12223;42.650;23.364;2023-02-18T09:08:08;95432.00;;;10.47;43.30
11099;BME280;12223;42.650;23.364;2023-02-18T09:10:35;95433.63;;;10.55;42.21
11099;BME280;12223;42.650;23.364;2023-02-18T09:13:03;95426.09;;;10.78;42.05
11099;BME280;12223;42.650;23.364;2023-02-18T09:15:30;95441.13;;;11.04;42.12
11099;BME280;12223;42.650;23.364;2023-02-18T09:17:57;95440.66;;;11.20;41.96
11099;BME280;12223;42.650;23.364;2023-02-18T09:20:26;95430.25;;;11.38;41.46
11099;BME280;12223;42.650;23.364;2023-02-18T09:22:53;95418.06;;;11.37;41.00
11099;BME280;12223;42.650;23.364;2023-02-18T09:25:20;95431.47;;;11.42;41.42
11099;BME280;12223;42.650;23.364;2023-02-18T09:27:46;95425.50;;;11.60;40.94
11099;BME280;12223;42.650;23.364;2023-02-18T09:30:13;95429.75;;;11.67;41.24
11099;BME280;12223;42.650;23.364;2023-02-18T09:32:40;95417.31;;;11.81;41.02
11099;BME280;12223;42.650;23.364;2023-02-18T09:35:07;95404.97;;;12.06;40.28
11099;BME280;12223;42.650;23.364;2023-02-18T09:37:35;95395.09;;;12.20;39.78
11099;BME280;12223;42.650;23.364;2023-02-18T09:40:05;95402.88;;;12.40;39.70
11099;BME280;12223;42.650;23.364;2023-02-18T09:42:33;95396.16;;;12.69;38.77
11099;BME280;12223;42.650;23.364;2023-02-18T09:45:03;95385.41;;;12.64;38.48
11099;BME280;12223;42.650;23.364;2023-02-18T09:47:34;95395.13;;;12.70;38.08
11099;BME280;12223;42.650;23.364;2023-02-18T09:50:05;95395.34;;;12.68;38.59
11099;BME280;12223;42.650;23.364;2023-02-18T09:52:35;95402.97;;;12.83;38.27
11099;BME280;12223;42.650;23.364;2023-02-18T09:55:16;95404.28;;;13.17;37.27
11099;BME280;12223;42.650;23.364;2023-02-18T09:57:45;95409.59;;;13.17;37.11
11099;BME280;12223;42.650;23.364;2023-02-18T10:00:16;95404.44;;;12.97;37.76
11099;BME280;12223;42.650;23.364;2023-02-18T10:02:52;95402.22;;;12.76;37.81
11099;BME280;12223;42.650;23.364;2023-02-18T10:05:20;95400.56;;;12.25;38.52
11099;BME280;12223;42.650;23.364;2023-02-18T10:07:51;95388.72;;;12.28;38.72
11099;BME280;12223;42.650;23.364;2023-02-18T10:10:26;95387.00;;;12.40;38.60
11099;BME280;12223;42.650;23.364;2023-02-18T10:12:57;95378.13;;;12.77;38.29
11099;BME280;12223;42.650;23.364;2023-02-18T10:15:27;95377.69;;;13.23;38.19
11099;BME280;12223;42.650;23.364;2023-02-18T10:17:55;95377.69;;;13.60;36.90
11099;BME280;12223;42.650;23.364;2023-02-18T10:20:24;95384.88;;;13.89;36.72
11099;BME280;12223;42.650;23.364;2023-02-18T10:22:54;95387.19;;;14.16;35.71
11099;BME280;12223;42.650;23.364;2023-02-18T10:25:23;95377.84;;;14.25;35.37
11099;BME280;12223;42.650;23.364;2023-02-18T10:27:52;95373.09;;;14.15;35.31
11099;BME280;12223;42.650;23.364;2023-02-18T10:30:22;95369.06;;;14.36;35.40
11099;BME280;12223;42.650;23.364;2023-02-18T10:32:51;95366.63;;;14.64;35.25
11099;BME280;12223;42.650;23.364;2023-02-18T10:35:23;95365.47;;;14.83;34.99
11099;BME280;12223;42.650;23.364;2023-02-18T10:38:02;95356.59;;;14.78;34.37
11099;BME280;12223;42.650;23.364;2023-02-18T10:40:43;95365.34;;;15.02;34.34
11099;BME280;12223;42.650;23.364;2023-02-18T10:43:18;95363.28;;;15.15;33.81
11099;BME280;12223;42.650;23.364;2023-02-18T10:45:55;95336.84;;;15.37;33.21
11099;BME280;12223;42.650;23.364;2023-02-18T10:48:46;95344.91;;;15.65;32.92
11099;BME280;12223;42.650;23.364;2023-02-18T10:51:20;95335.56;;;15.91;32.56
11099;BME280;12223;42.650;23.364;2023-02-18T10:53:50;95327.78;;;16.18;32.35
11099;BME280;12223;42.650;23.364;2023-02-18T10:56:36;95319.41;;;16.43;31.68
11099;BME280;12223;42.650;23.364;2023-02-18T10:59:11;95322.97;;;16.65;31.46
11099;BME280;12223;42.650;23.364;2023-02-18T11:01:39;95319.56;;;16.70;30.64
11099;BME280;12223;42.650;23.364;2023-02-18T11:04:12;95321.97;;;16.55;31.10
11099;BME280;12223;42.650;23.364;2023-02-18T11:06:41;95312.91;;;16.22;30.63
11099;BME280;12223;42.650;23.364;2023-02-18T11:09:24;95301.06;;;15.85;31.43
11099;BME280;12223;42.650;23.364;2023-02-18T11:11:58;95303.94;;;15.66;31.72
11099;BME280;12223;42.650;23.364;2023-02-18T11:14:39;95303.88;;;15.38;32.36
11099;BME280;12223;42.650;23.364;2023-02-18T11:17:16;95287.34;;;15.36;32.29
11099;BME280;12223;42.650;23.364;2023-02-18T11:19:51;95261.34;;;15.15;32.56
11099;BME280;12223;42.650;23.364;2023-02-18T11:22:20;95271.25;;;15.31;32.29
11099;BME280;12223;42.650;23.364;2023-02-18T11:24:53;95271.38;;;15.36;32.08
11099;BME280;12223;42.650;23.364;2023-02-18T11:27:23;95265.13;;;15.30;32.14
11099;BME280;12223;42.650;23.364;2023-02-18T11:29:53;95264.84;;;15.44;32.98
11099;BME280;12223;42.650;23.364;2023-02-18T11:32:21;95270.44;;;15.71;32.43
11099;BME280;12223;42.650;23.364;2023-02-18T11:34:51;95253.06;;;15.96;31.90
11099;BME280;12223;42.650;23.364;2023-02-18T11:37:19;95242.41;;;16.13;31.87
11099;BME280;12223;42.650;23.364;2023-02-18T11:39:50;95248.06;;;16.50;31.11
11099;BME280;12223;42.650;23.364;2023-02-18T11:42:20;95238.56;;;16.59;30.43
11099;BME280;12223;42.650;23.364;2023-02-18T11:44:49;95236.34;;;16.68;30.01
11099;BME280;12223;42.650;23.364;2023-02-18T11:47:24;95225.75;;;16.73;30.02
11099;BME280;12223;42.650;23.364;2023-02-18T11:50:01;95235.06;;;16.92;29.63
11099;BME280;12223;42.650;23.364;2023-02-18T11:52:32;95225.59;;;16.63;28.82
11099;BME280;12223;42.650;23.364;2023-02-18T11:55:03;95226.72;;;16.50;29.26
11099;BME280;12223;42.650;23.364;2023-02-18T11:57:33;95226.50;;;16.01;30.37
11099;BME280;12223;42.650;23.364;2023-02-18T12:00:04;95212.38;;;15.84;29.77
11099;BME280;12223;42.650;23.364;2023-02-18T12:02:33;95206.75;;;15.52;29.82
11099;BME280;12223;42.650;23.364;2023-02-18T12:05:03;95205.78;;;15.58;30.42
11099;BME280;12223;42.650;23.364;2023-02-18T12:07:38;95195.09;;;15.87;30.40
11099;BME280;12223;42.650;23.364;2023-02-18T12:10:13;95181.94;;;15.97;30.08
11099;BME280;12223;42.650;23.364;2023-02-18T12:12:44;95180.47;;;15.89;29.98
11099;BME280;12223;42.650;23.364;2023-02-18T12:15:15;95184.75;;;15.74;30.33
11099;BME280;12223;42.650;23.364;2023-02-18T12:17:53;95184.53;;;15.92;30.25
11099;BME280;12223;42.650;23.364;2023-02-18T12:20:53;95180.97;;;16.03;30.76
11099;BME280;12223;42.650;23.364;2023-02-18T12:23:32;95171.09;;;16.20;29.24
11099;BME280;12223;42.650;23.364;2023-02-18T12:26:09;95180.13;;;16.19;29.41
11099;BME280;12223;42.650;23.364;2023-02-18T12:28:50;95174.81;;;16.19;30.14
11099;BME280;12223;42.650;23.364;2023-02-18T12:34:27;95159.97;;;16.06;30.88
11099;BME280;12223;42.650;23.364;2023-02-18T12:37:05;95161.25;;;15.87;31.48
11099;BME280;12223;42.650;23.364;2023-02-18T12:39:50;95159.84;;;15.51;31.93
11099;BME280;12223;42.650;23.364;2023-02-18T12:42:36;95144.88;;;15.17;32.89
11099;BME280;12223;42.650;23.364;2023-02-18T12:45:26;95147.50;;;15.45;32.49
11099;BME280;12223;42.650;23.364;2023-02-18T12:48:14;95140.28;;;15.57;32.58
11099;BME280;12223;42.650;23.364;2023-02-18T12:51:01;95139.47;;;15.57;32.49
11099;BME280;12223;42.650;23.364;2023-02-18T12:53:43;95149.06;;;15.75;32.50
11099;BME280;12223;42.650;23.364;2023-02-18T12:59:49;95139.56;;;15.95;31.82
11099;BME280;12223;42.650;23.364;2023-02-18T13:02:33;95150.34;;;16.22;31.70
11099;BME280;12223;42.650;23.364;2023-02-18T13:05:11;95138.94;;;16.65;30.42
11099;BME280;12223;42.650;23.364;2023-02-18T13:07:53;95135.78;;;16.90;29.62
11099;BME280;12223;42.650;23.364;2023-02-18T13:10:39;95141.41;;;17.15;29.39
11099;BME280;12223;42.650;23.364;2023-02-18T13:13:10;95142.41;;;17.36;29.25
11099;BME280;12223;42.650;23.364;2023-02-18T13:15:42;95135.94;;;17.59;28.94
11099;BME280;12223;42.650;23.364;2023-02-18T13:18:11;95133.63;;;17.62;28.84
11099;BME280;12223;42.650;23.364;2023-02-18T13:20:43;95140.47;;;17.58;28.95
11099;BME280;12223;42.650;23.364;2023-02-18T13:23:16;95128.53;;;17.61;28.61
11099;BME280;12223;42.650;23.364;2023-02-18T13:25:44;95135.38;;;17.84;28.56